createdAt,value
2022-11-23T00:03:20.366Z,3.15
2022-11-23T00:08:24.368Z,3.21
2022-11-23T00:13:28.068Z,3.24
2022-11-23T00:18:32.051Z,3.23
2022-11-23T00:23:35.965Z,3.20
2022-11-23T00:28:40.957Z,3.15
2022-11-23T00:33:51.842Z,3.11
2022-11-23T00:38:55.648Z,3.05
2022-11-23T00:43:59.743Z,3.00
2022-11-23T00:49:04.832Z,2.97
2022-11-23T00:54:19.490Z,2.94
2022-11-23T00:59:25.582Z,2.94
2022-11-23T01:04:30.392Z,2.93
2022-11-23T01:09:36.352Z,2.96
2022-11-23T01:14:40.724Z,3.02
2022-11-23T01:19:45.077Z,3.11
2022-11-23T01:24:50.753Z,3.20
2022-11-23T01:29:59.236Z,3.23
2022-11-23T01:40:41.409Z,3.26
2022-11-23T01:46:06.568Z,3.23
2022-11-23T01:51:18.598Z,3.22
2022-11-23T01:56:31.654Z,3.19
2022-11-23T02:01:38.806Z,3.17
2022-11-23T02:07:07.492Z,3.13
2022-11-23T02:12:14.900Z,3.10
2022-11-23T02:17:22.321Z,3.10
2022-11-23T02:22:48.497Z,3.17
2022-11-23T02:27:52.981Z,3.29
2022-11-23T02:32:57.411Z,3.38
2022-11-23T02:38:09.030Z,3.42
2022-11-23T02:43:13.191Z,3.45
2022-11-23T02:48:23.135Z,3.44
2022-11-23T02:53:27.426Z,3.43
2022-11-23T02:58:31.506Z,3.43
2022-11-23T03:03:38.008Z,3.44
2022-11-23T03:08:42.023Z,3.43
2022-11-23T03:13:45.739Z,3.44
2022-11-23T03:18:53.367Z,3.43
2022-11-23T03:24:00.456Z,3.43
2022-11-23T03:29:05.546Z,3.45
2022-11-23T03:34:10.470Z,3.54
2022-11-23T03:39:15.332Z,3.62
2022-11-23T03:44:38.437Z,3.64
2022-11-23T03:49:44.438Z,3.63
2022-11-23T03:54:48.674Z,3.60
2022-11-23T03:59:52.837Z,3.60
2022-11-23T04:04:56.688Z,3.54
2022-11-23T04:10:20.886Z,3.49
2022-11-23T04:15:47.939Z,3.44
2022-11-23T04:20:52.145Z,3.39
2022-11-23T04:26:02.152Z,3.38
2022-11-23T04:31:08.243Z,3.41
2022-11-23T04:36:21.075Z,3.45
2022-11-23T04:41:25.428Z,3.51
2022-11-23T04:46:33.583Z,3.51
2022-11-23T04:52:13.402Z,3.54
2022-11-23T04:57:22.371Z,3.48
2022-11-23T05:02:27.857Z,3.41
2022-11-23T05:07:50.680Z,3.30
2022-11-23T05:12:58.670Z,3.20
2022-11-23T05:18:19.415Z,3.14
2022-11-23T05:23:24.275Z,3.08
2022-11-23T05:28:40.683Z,3.17
2022-11-23T05:33:46.545Z,3.11
2022-11-23T05:38:52.955Z,3.01
2022-11-23T05:44:03.449Z,2.95
2022-11-23T05:49:10.659Z,3.04
2022-11-23T05:54:15.381Z,3.29
2022-11-23T05:59:31.065Z,3.28
2022-11-23T06:04:38.703Z,3.24
2022-11-23T06:09:45.334Z,3.14
2022-11-23T06:14:54.208Z,3.09
2022-11-23T06:19:59.791Z,3.03
2022-11-23T06:25:10.106Z,3.00
2022-11-23T06:30:15.643Z,2.94
2022-11-23T06:35:31.326Z,2.88
2022-11-23T06:40:39.929Z,2.86
2022-11-23T06:45:43.756Z,2.87
2022-11-23T06:50:51.010Z,2.89
2022-11-23T06:56:00.557Z,2.94
2022-11-23T07:01:08.245Z,3.02
2022-11-23T07:06:26.559Z,3.12
2022-11-23T07:11:41.500Z,3.17
2022-11-23T07:16:54.966Z,3.19
2022-11-23T07:22:09.199Z,3.17
2022-11-23T07:27:17.673Z,3.18
2022-11-23T07:32:22.360Z,3.19
2022-11-23T07:37:27.012Z,3.19
2022-11-23T07:42:45.370Z,3.19
2022-11-23T07:48:02.240Z,3.21
2022-11-23T07:53:07.439Z,3.23
2022-11-23T07:58:12.127Z,3.27
2022-11-23T08:03:33.895Z,3.38
2022-11-23T08:08:43.249Z,3.47
2022-11-23T08:13:55.681Z,3.51
2022-11-23T08:18:59.339Z,3.52
2022-11-23T08:24:03.743Z,3.51
2022-11-23T08:29:07.911Z,3.53
2022-11-23T08:34:16.730Z,3.58
2022-11-23T08:39:42.037Z,3.56
2022-11-23T08:44:49.344Z,3.56
2022-11-23T08:49:58.802Z,3.58
2022-11-23T08:55:04.815Z,3.58
2022-11-23T09:00:09.035Z,3.60
2022-11-23T09:06:03.929Z,3.68
2022-11-23T09:11:13.816Z,3.80
2022-11-23T09:16:20.179Z,3.87
2022-11-23T09:21:24.759Z,3.86
2022-11-23T09:26:29.469Z,3.79
2022-11-23T09:31:33.496Z,3.75
2022-11-23T09:36:38.845Z,3.70
2022-11-23T09:42:35.930Z,3.75
2022-11-23T09:48:09.042Z,3.76
2022-11-23T09:53:21.448Z,3.71
2022-11-23T09:58:32.961Z,3.71
2022-11-23T10:03:48.721Z,3.77
2022-11-23T10:09:13.390Z,3.86
2022-11-23T10:14:36.554Z,3.94
2022-11-23T10:20:15.262Z,3.93
2022-11-23T10:25:22.843Z,3.93
2022-11-23T11:53:11.775Z,2.61
2022-11-23T12:04:53.114Z,3.10
2022-11-23T12:17:46.612Z,3.47
2022-11-23T12:24:27.116Z,3.56
2022-11-23T12:29:57.693Z,3.63
2022-11-23T12:41:41.089Z,3.71
2022-11-23T12:47:03.755Z,3.74
2022-11-23T12:53:00.616Z,3.82
2022-11-23T12:58:16.527Z,3.89
2022-11-23T13:04:56.097Z,3.94
2022-11-23T13:10:05.337Z,3.99
2022-11-23T13:15:50.686Z,3.98
2022-11-23T13:21:20.485Z,3.99
2022-11-23T13:26:30.117Z,3.98
2022-11-23T13:31:36.260Z,4.00
2022-11-23T13:37:11.086Z,3.99
2022-11-23T13:42:15.321Z,4.05
2022-11-23T13:47:27.824Z,4.16
2022-11-23T13:52:33.110Z,4.23
2022-11-23T13:57:57.371Z,4.28
2022-11-23T14:03:41.119Z,4.30
2022-11-23T14:08:47.672Z,4.32
2022-11-23T14:25:25.188Z,4.31
2022-11-23T14:30:40.424Z,4.31
2022-11-23T14:35:59.383Z,4.27
2022-11-23T14:41:15.495Z,4.33
2022-11-23T14:46:22.070Z,4.33
2022-11-23T14:51:29.095Z,4.36
2022-11-23T14:56:36.056Z,4.46
2022-11-23T15:02:41.101Z,4.55
2022-11-23T15:08:17.854Z,4.50
2022-11-23T15:14:08.680Z,4.41
2022-11-23T15:19:29.590Z,4.38
2022-11-23T15:24:52.115Z,4.35
2022-11-23T15:29:58.898Z,4.30
2022-11-23T15:35:11.014Z,4.24
2022-11-23T15:40:16.959Z,4.22
2022-11-23T15:45:59.822Z,4.19
2022-11-23T15:51:06.829Z,4.18
2022-11-23T15:56:22.873Z,4.22
2022-11-23T16:01:26.688Z,4.36
2022-11-23T16:06:41.927Z,4.39
2022-11-23T16:11:46.253Z,4.39
2022-11-23T16:17:15.295Z,4.39
2022-11-23T16:22:37.145Z,4.35
2022-11-23T16:27:45.018Z,4.33
2022-11-23T16:32:48.396Z,4.29
2022-11-23T16:44:12.985Z,4.23
2022-11-23T16:49:19.574Z,4.19
2022-11-23T16:54:25.085Z,4.17
2022-11-23T16:59:28.715Z,4.15
2022-11-23T17:04:35.144Z,4.18
2022-11-23T17:11:22.328Z,4.34
2022-11-23T17:16:08.991Z,4.60
2022-11-23T17:21:39.747Z,4.54
2022-11-23T17:26:53.551Z,4.48
2022-11-23T17:31:57.432Z,4.44
2022-11-23T17:37:02.626Z,4.42
2022-11-23T17:42:06.969Z,4.39
2022-11-23T17:47:34.571Z,4.35
2022-11-23T17:52:52.735Z,4.34
2022-11-23T17:57:56.610Z,4.28
2022-11-23T18:02:59.758Z,4.22
2022-11-23T18:08:03.527Z,4.21
2022-11-23T18:13:06.485Z,4.22
2022-11-23T18:18:09.801Z,4.31
2022-11-23T18:23:12.791Z,4.37
2022-11-23T18:28:18.852Z,4.40
2022-11-23T18:33:22.581Z,4.38
2022-11-23T18:38:25.736Z,4.34
2022-11-23T18:43:28.774Z,4.31
2022-11-23T18:48:32.509Z,4.24
2022-11-23T18:53:36.434Z,4.20
2022-11-23T18:58:42.136Z,4.18
2022-11-23T19:03:47.338Z,4.15
2022-11-23T19:09:01.009Z,4.14
2022-11-23T19:14:12.832Z,4.15
2022-11-23T19:19:20.236Z,4.20
2022-11-23T19:24:41.667Z,4.24
2022-11-23T19:30:15.814Z,4.28
2022-11-23T19:36:06.933Z,4.31
2022-11-23T19:41:11.729Z,4.30
2022-11-23T19:46:47.297Z,4.28
2022-11-23T19:51:54.056Z,4.24
2022-11-23T19:57:08.015Z,4.20
2022-11-23T20:02:23.810Z,4.16
2022-11-23T20:07:28.020Z,4.25
2022-11-23T20:12:32.288Z,4.42
2022-11-23T20:17:52.221Z,4.37
2022-11-23T20:22:58.901Z,4.33
2022-11-23T20:28:11.922Z,4.32
2022-11-23T20:33:19.938Z,4.30
2022-11-23T20:38:24.584Z,4.26
2022-11-23T20:43:31.067Z,4.26
2022-11-23T20:48:39.831Z,4.32
2022-11-23T20:54:27.721Z,4.32
2022-11-23T20:59:36.894Z,4.22
2022-11-23T21:04:47.225Z,4.16
2022-11-23T21:09:59.554Z,4.13
2022-11-23T21:15:20.333Z,4.16
2022-11-23T21:20:25.570Z,4.15
2022-11-23T21:25:38.859Z,4.10
2022-11-23T21:30:56.719Z,4.13
2022-11-23T21:36:07.287Z,4.17
2022-11-23T21:47:03.996Z,4.33
2022-11-23T21:52:10.795Z,4.40
2022-11-23T21:57:19.077Z,4.40
2022-11-23T22:02:28.278Z,4.32
2022-11-23T22:07:47.447Z,4.26
2022-11-23T22:13:25.265Z,4.18
2022-11-23T22:18:40.252Z,4.11
2022-11-23T22:24:04.096Z,4.15
2022-11-23T22:29:14.670Z,4.25
2022-11-23T22:34:23.840Z,4.29
2022-11-23T22:39:28.518Z,4.38
2022-11-23T22:45:02.967Z,4.37
2022-11-23T22:50:08.381Z,4.31
2022-11-23T22:55:16.010Z,4.27
2022-11-23T23:00:30.792Z,4.22
2022-11-23T23:05:36.271Z,4.19
2022-11-23T23:10:44.644Z,4.17
2022-11-23T23:16:04.743Z,4.13
2022-11-23T23:21:14.906Z,4.09
2022-11-23T23:26:36.959Z,4.07
2022-11-23T23:31:47.120Z,4.04
2022-11-23T23:42:36.657Z,4.00
2022-11-23T23:48:16.101Z,3.98
2022-11-23T23:59:25.958Z,4.11
